createdAt,value
2022-12-24T00:03:20.599Z,99030.47
2022-12-24T00:08:40.881Z,99037.84
2022-12-24T00:13:47.942Z,99045.72
2022-12-24T00:19:15.628Z,99043.91
2022-12-24T00:24:20.980Z,99043.09
2022-12-24T00:29:35.174Z,99056.38
2022-12-24T00:34:42.137Z,99074.03
2022-12-24T00:39:46.835Z,99058.16
2022-12-24T00:44:54.796Z,99065.84
2022-12-24T00:50:00.627Z,99084.66
2022-12-24T00:55:07.365Z,99090.19
2022-12-24T01:00:12.493Z,99098.19
2022-12-24T01:05:21.134Z,99100.47
2022-12-24T01:10:30.067Z,99120.09
2022-12-24T01:15:35.237Z,99129.16
2022-12-24T01:20:43.622Z,99147.00
2022-12-24T01:25:52.845Z,99139.66
2022-12-24T01:30:57.807Z,99154.38
2022-12-24T01:36:05.800Z,99153.38
2022-12-24T01:41:32.971Z,99154.19
2022-12-24T01:46:45.997Z,99163.53
2022-12-24T01:51:55.067Z,99167.78
2022-12-24T01:57:02.985Z,99178.06
2022-12-24T02:02:09.895Z,99186.25
2022-12-24T02:07:18.345Z,99191.34
2022-12-24T02:12:22.741Z,99190.22
2022-12-24T02:17:34.725Z,99201.63
2022-12-24T02:22:57.419Z,99197.88
2022-12-24T02:28:10.839Z,99203.59
2022-12-24T02:33:32.383Z,99223.09
2022-12-24T02:38:40.714Z,99212.94
2022-12-24T02:43:49.004Z,99210.97
2022-12-24T02:48:55.379Z,99225.88
2022-12-24T02:54:01.941Z,99216.88
2022-12-24T02:59:30.991Z,99230.63
2022-12-24T03:04:52.879Z,99233.22
2022-12-24T03:10:18.076Z,99234.22
2022-12-24T03:15:33.887Z,99246.66
2022-12-24T03:20:49.402Z,99245.50
2022-12-24T03:25:59.747Z,99246.28
2022-12-24T03:31:07.225Z,99251.53
2022-12-24T03:36:18.644Z,99277.41
2022-12-24T03:41:24.784Z,99289.19
2022-12-24T03:46:31.222Z,99294.94
2022-12-24T03:51:37.152Z,99305.09
2022-12-24T03:56:45.326Z,99310.31
2022-12-24T04:01:50.843Z,99322.25
2022-12-24T04:07:00.753Z,99329.00
2022-12-24T04:12:05.444Z,99345.53
2022-12-24T04:17:14.911Z,99355.19
2022-12-24T04:22:20.715Z,99360.41
2022-12-24T04:27:30.754Z,99369.09
2022-12-24T04:32:38.536Z,99372.53
2022-12-24T04:37:47.215Z,99384.31
2022-12-24T04:42:52.735Z,99390.38
2022-12-24T04:48:00.138Z,99383.50
2022-12-24T04:53:07.813Z,99389.56
2022-12-24T04:58:26.739Z,99393.16
2022-12-24T05:03:44.742Z,99407.22
2022-12-24T05:09:00.639Z,99406.25
2022-12-24T05:14:18.965Z,99428.19
2022-12-24T05:19:24.880Z,99423.13
2022-12-24T05:24:50.761Z,99438.00
2022-12-24T05:29:54.935Z,99442.72
2022-12-24T05:35:00.961Z,99447.75
2022-12-24T05:40:09.779Z,99456.69
2022-12-24T05:45:20.323Z,99468.75
2022-12-24T05:50:26.323Z,99479.44
2022-12-24T05:55:33.967Z,99484.94
2022-12-24T06:00:40.675Z,99508.09
2022-12-24T06:05:46.896Z,99515.66
2022-12-24T06:11:05.094Z,99533.50
2022-12-24T06:16:12.212Z,99536.28
2022-12-24T06:21:19.358Z,99542.50
2022-12-24T06:26:26.645Z,99559.84
2022-12-24T06:31:35.144Z,99566.31
2022-12-24T06:36:40.808Z,99577.63
2022-12-24T06:41:49.558Z,99590.03
2022-12-24T06:46:53.983Z,99602.44
2022-12-24T06:51:59.318Z,99601.31
2022-12-24T06:57:08.728Z,99606.72
2022-12-24T07:02:21.321Z,99608.34
2022-12-24T07:07:31.773Z,99607.00
2022-12-24T07:13:09.196Z,99609.97
2022-12-24T07:18:18.873Z,99625.09
2022-12-24T07:23:29.716Z,99632.31
2022-12-24T07:28:49.005Z,99631.53
2022-12-24T07:34:10.167Z,99650.72
2022-12-24T07:39:32.597Z,99654.31
2022-12-24T07:50:09.543Z,99679.34
2022-12-24T07:55:17.440Z,99699.56
2022-12-24T08:00:25.833Z,99707.09
2022-12-24T08:05:34.312Z,99717.81
2022-12-24T08:10:56.771Z,99727.44
2022-12-24T08:16:06.569Z,99729.72
2022-12-24T08:21:11.486Z,99736.31
2022-12-24T08:26:16.451Z,99746.06
2022-12-24T08:31:24.723Z,99748.59
2022-12-24T08:36:28.895Z,99755.63
2022-12-24T08:41:36.421Z,99775.19
2022-12-24T08:46:44.369Z,99784.53
2022-12-24T08:51:50.812Z,99779.81
2022-12-24T08:56:55.054Z,99794.69
2022-12-24T09:02:08.211Z,99805.00
2022-12-24T09:07:13.303Z,99808.00
2022-12-24T09:12:20.370Z,99823.94
2022-12-24T09:17:27.337Z,99816.88
2022-12-24T09:22:38.855Z,99820.94
2022-12-24T09:27:46.683Z,99836.59
2022-12-24T09:33:05.333Z,99847.00
2022-12-24T09:38:12.429Z,99851.28
2022-12-24T09:43:21.901Z,99849.50
2022-12-24T09:48:33.577Z,99862.72
2022-12-24T09:53:46.949Z,99870.16
2022-12-24T09:59:01.323Z,99871.19
2022-12-24T10:04:16.756Z,99878.97
2022-12-24T10:09:32.931Z,99884.09
2022-12-24T10:14:52.756Z,99888.38
2022-12-24T10:20:23.229Z,99886.91
2022-12-24T10:25:32.222Z,99880.97
2022-12-24T10:30:38.637Z,99877.72
2022-12-24T10:35:50.930Z,99891.06
2022-12-24T10:41:01.249Z,99900.88
2022-12-24T10:46:11.039Z,99891.69
2022-12-24T10:51:25.696Z,99896.69
2022-12-24T10:56:30.298Z,99903.19
2022-12-24T11:01:49.093Z,99903.19
2022-12-24T11:06:58.416Z,99913.38
2022-12-24T11:12:09.584Z,99915.44
2022-12-24T11:17:31.553Z,99922.09
2022-12-24T11:22:43.671Z,99922.72
2022-12-24T11:27:56.630Z,99919.19
2022-12-24T11:33:23.209Z,99924.22
2022-12-24T11:38:38.689Z,99911.59
2022-12-24T11:43:51.721Z,99926.50
2022-12-24T11:49:17.752Z,99928.88
2022-12-24T11:54:47.576Z,99927.91
2022-12-24T11:59:53.441Z,99925.59
2022-12-24T12:05:02.955Z,99926.94
2022-12-24T12:10:18.930Z,99934.06
2022-12-24T12:15:28.812Z,99941.97
2022-12-24T12:20:37.971Z,99941.44
2022-12-24T12:25:57.115Z,99948.19
2022-12-24T12:31:13.760Z,99934.28
2022-12-24T12:36:22.896Z,99942.16
2022-12-24T12:41:45.365Z,99946.56
2022-12-24T12:47:13.407Z,99955.94
2022-12-24T12:52:29.405Z,99952.34
2022-12-24T12:57:41.810Z,99948.06
2022-12-24T13:03:13.830Z,99960.53
2022-12-24T13:09:00.654Z,99960.53
2022-12-24T13:14:35.962Z,99963.94
2022-12-24T13:20:14.177Z,99964.41
2022-12-24T13:25:27.480Z,99986.41
2022-12-24T13:30:40.771Z,99985.06
2022-12-24T13:36:07.064Z,99989.63
2022-12-24T13:42:00.979Z,100002.31
2022-12-24T13:47:33.103Z,100007.31
2022-12-24T13:52:42.884Z,100018.91
2022-12-24T13:57:56.842Z,100022.38
2022-12-24T14:03:17.629Z,100029.69
2022-12-24T14:08:34.420Z,100045.75
2022-12-24T14:14:12.509Z,100054.56
2022-12-24T14:19:22.415Z,100049.22
2022-12-24T14:24:30.540Z,100063.59
2022-12-24T14:29:40.389Z,100078.69
2022-12-24T14:34:46.183Z,100083.38
2022-12-24T14:39:57.075Z,100074.16
2022-12-24T14:45:16.298Z,100078.16
2022-12-24T14:50:45.638Z,100085.63
2022-12-24T14:55:53.176Z,100085.50
2022-12-24T15:01:04.307Z,100099.47
2022-12-24T15:06:39.519Z,100111.72
2022-12-24T15:11:46.840Z,100107.16
2022-12-24T15:16:58.178Z,100112.69
2022-12-24T15:22:06.670Z,100133.81
2022-12-24T15:27:19.508Z,100134.63
2022-12-24T15:32:24.686Z,100135.16
2022-12-24T15:38:00.363Z,100144.38
2022-12-24T15:43:14.521Z,100156.91
2022-12-24T15:48:26.240Z,100159.50
2022-12-24T15:53:36.211Z,100158.94
2022-12-24T15:58:51.364Z,100167.63
2022-12-24T16:04:18.463Z,100164.53
2022-12-24T16:09:47.129Z,100173.75
2022-12-24T16:15:04.487Z,100184.31
2022-12-24T16:20:34.124Z,100182.72
2022-12-24T16:25:48.710Z,100186.25
2022-12-24T16:30:58.173Z,100194.19
2022-12-24T16:36:05.276Z,100190.56
2022-12-24T16:41:17.212Z,100195.50
2022-12-24T16:46:36.534Z,100207.53
2022-12-24T16:51:46.115Z,100209.94
2022-12-24T16:57:06.848Z,100209.50
2022-12-24T17:02:28.372Z,100217.38
2022-12-24T17:07:42.957Z,100228.31
2022-12-24T17:12:53.822Z,100233.44
2022-12-24T17:18:07.149Z,100242.00
2022-12-24T17:23:16.251Z,100244.28
2022-12-24T17:28:30.555Z,100252.63
2022-12-24T17:33:36.564Z,100259.16
2022-12-24T17:38:42.440Z,100276.00
2022-12-24T17:43:50.637Z,100276.13
2022-12-24T17:48:55.363Z,100285.97
2022-12-24T17:54:00.307Z,100282.75
2022-12-24T17:59:10.205Z,100278.00
2022-12-24T18:04:28.196Z,100284.28
2022-12-24T18:09:33.841Z,100281.44
2022-12-24T18:14:40.342Z,100292.13
2022-12-24T18:19:45.409Z,100286.00
2022-12-24T18:24:52.702Z,100293.59
2022-12-24T18:29:59.092Z,100293.22
2022-12-24T18:35:07.326Z,100294.53
2022-12-24T18:40:12.878Z,100307.00
2022-12-24T18:45:21.773Z,100309.34
2022-12-24T18:50:27.967Z,100320.03
2022-12-24T18:55:35.935Z,100335.22
2022-12-24T19:00:46.050Z,100342.31
2022-12-24T19:05:54.628Z,100339.00
2022-12-24T19:10:58.749Z,100342.06
2022-12-24T19:16:07.311Z,100349.41
2022-12-24T19:21:20.796Z,100365.41
2022-12-24T19:26:24.998Z,100366.91
2022-12-24T19:31:32.625Z,100368.09
2022-12-24T19:36:37.801Z,100352.94
2022-12-24T19:41:47.229Z,100355.16
2022-12-24T19:46:55.638Z,100377.28
2022-12-24T19:52:00.106Z,100370.03
2022-12-24T19:57:06.494Z,100365.16
2022-12-24T20:02:15.614Z,100363.94
2022-12-24T20:07:24.894Z,100371.38
2022-12-24T20:12:30.826Z,100377.03
2022-12-24T20:17:36.968Z,100381.00
2022-12-24T20:22:41.284Z,100389.38
2022-12-24T20:27:49.823Z,100385.41
2022-12-24T20:32:58.514Z,100391.91
2022-12-24T20:38:05.341Z,100399.31
2022-12-24T20:43:10.519Z,100396.91
2022-12-24T20:48:21.199Z,100398.06
2022-12-24T20:53:26.414Z,100384.66
2022-12-24T20:58:34.980Z,100396.44
2022-12-24T21:03:41.439Z,100401.16
2022-12-24T21:08:47.476Z,100402.41
2022-12-24T21:13:56.475Z,100402.63
2022-12-24T21:19:07.344Z,100419.16
2022-12-24T21:24:14.538Z,100428.72
2022-12-24T21:29:19.119Z,100424.69
2022-12-24T21:34:35.518Z,100423.22
2022-12-24T21:39:45.889Z,100439.16
2022-12-24T21:44:52.563Z,100434.88
2022-12-24T21:50:17.393Z,100449.63
2022-12-24T21:55:21.676Z,100452.56
2022-12-24T22:00:31.561Z,100466.47
2022-12-24T22:05:45.649Z,100464.66
2022-12-24T22:11:07.361Z,100468.38
2022-12-24T22:16:16.684Z,100481.06
2022-12-24T22:21:27.000Z,100477.19
2022-12-24T22:26:32.956Z,100485.19
2022-12-24T22:31:38.881Z,100488.13
2022-12-24T22:36:47.564Z,100488.00
2022-12-24T22:41:56.140Z,100497.16
2022-12-24T22:47:01.375Z,100498.84
2022-12-24T22:52:09.023Z,100498.09
2022-12-24T22:57:17.144Z,100498.09
2022-12-24T23:02:29.329Z,100512.78
2022-12-24T23:07:40.430Z,100513.19
2022-12-24T23:13:01.956Z,100514.22
2022-12-24T23:18:07.031Z,100510.16
2022-12-24T23:23:17.963Z,100520.63
2022-12-24T23:28:26.474Z,100533.84
2022-12-24T23:33:37.573Z,100535.50
2022-12-24T23:38:44.831Z,100515.66
2022-12-24T23:43:50.560Z,100528.63
2022-12-24T23:48:56.644Z,100513.25
2022-12-24T23:54:13.458Z,100515.84
2022-12-24T23:59:18.035Z,100522.06
